Time;durP1;ratioP1;P1;durP2;ratioP2;P2;SDS_P1;SDS_P2;PMS_P1;PMS_P2;Temp;Humidity;BMP_temperature;BMP_pressure;BME280_temperature;BME280_humidity;BME280_pressure;Samples;Min_cycle;Max_cycle;Signal;HPM_P1;HPM_P2
2023/10/18 00:01:41;;;;;;;11.10;6.10;;;;;;;2.45;69.77;99799.01;107168;1258;74187;-36
2023/10/18 00:04:10;;;;;;;9.30;6.60;;;;;;;2.39;69.70;99796.55;107117;1257;66636;-36
2023/10/18 00:06:39;;;;;;;10.30;6.70;;;;;;;2.42;69.85;99796.86;107155;1259;71478;-35
2023/10/18 00:11:53;;;;;;;12.90;7.10;;;;;;;2.40;69.92;99795.08;107134;1258;60403;-35
2023/10/18 00:14:20;;;;;;;10.50;7.30;;;;;;;2.39;70.05;99794.14;107090;1258;72871;-36
2023/10/18 00:16:48;;;;;;;11.80;7.10;;;;;;;2.35;70.13;99793.94;107170;1258;65292;-35
2023/10/18 00:19:15;;;;;;;11.60;7.00;;;;;;;2.30;70.20;99788.68;107024;1257;72504;-35
2023/10/18 00:21:44;;;;;;;10.50;7.20;;;;;;;2.27;70.51;99789.64;107062;1259;60835;-34
2023/10/18 00:24:11;;;;;;;12.50;7.20;;;;;;;2.23;70.63;99787.48;107047;1257;60791;-35
2023/10/18 00:26:39;;;;;;;9.80;6.90;;;;;;;2.16;70.99;99791.80;107048;1257;72605;-35
2023/10/18 00:29:07;;;;;;;12.20;6.80;;;;;;;2.19;71.16;99788.60;107019;1257;66326;-35
2023/10/18 00:31:34;;;;;;;12.60;7.20;;;;;;;2.24;71.12;99784.81;107050;1259;71686;-35
2023/10/18 00:34:04;;;;;;;15.00;7.00;;;;;;;2.20;71.26;99783.13;107046;1263;60439;-35
2023/10/18 00:36:32;;;;;;;;;;;;;;;2.16;71.60;99781.59;107072;1257;61250;-35
2023/10/18 00:39:14;;;;;;;13.10;7.00;;;;;;;2.11;71.91;99781.51;107148;1258;73774;-35
2023/10/18 00:41:44;;;;;;;11.10;7.10;;;;;;;2.08;71.78;99781.58;107064;1259;67579;-34
2023/10/18 00:44:13;;;;;;;13.30;7.40;;;;;;;2.04;71.88;99777.56;107040;1259;71478;-35
2023/10/18 00:46:41;;;;;;;11.50;7.10;;;;;;;2.01;71.96;99778.95;107056;1257;60990;-34
2023/10/18 00:49:13;;;;;;;9.90;6.70;;;;;;;2.04;71.98;99779.16;107000;1257;60413;-35
2023/10/18 00:51:43;;;;;;;11.60;6.90;;;;;;;2.09;71.92;99778.00;107058;1257;73838;-35
2023/10/18 00:54:11;;;;;;;12.10;7.40;;;;;;;2.07;72.35;99773.51;107016;1258;67659;-35
2023/10/18 00:56:40;;;;;;;11.50;7.00;;;;;;;2.01;72.35;99770.45;107011;1258;73056;-35
2023/10/18 00:59:14;;;;;;;10.60;7.50;;;;;;;1.95;72.48;99769.22;107114;1257;60390;-35
2023/10/18 01:01:44;;;;;;;11.70;7.00;;;;;;;1.89;72.74;99769.73;107121;1257;60393;-34
2023/10/18 01:04:12;;;;;;;12.50;7.10;;;;;;;1.85;73.12;99769.10;107414;1255;73848;-34
2023/10/18 01:06:42;;;;;;;11.70;7.00;;;;;;;1.83;73.05;99767.33;107287;1256;67563;-34
2023/10/18 01:09:15;;;;;;;;;;;;;;;1.85;73.06;99767.52;107175;1257;71403;-34
2023/10/18 01:11:46;;;;;;;9.20;6.70;;;;;;;1.88;73.10;99769.65;107301;1256;60421;-35
2023/10/18 01:14:17;;;;;;;11.30;7.00;;;;;;;1.88;73.26;99766.59;107329;1260;60479;-36
2023/10/18 01:16:45;;;;;;;11.20;7.00;;;;;;;1.87;73.28;99765.81;107325;1256;72643;-36
2023/10/18 01:19:15;;;;;;;12.10;7.50;;;;;;;1.84;73.35;99768.77;107301;1256;67862;-36
2023/10/18 01:21:45;;;;;;;12.90;7.50;;;;;;;1.82;73.43;99768.83;107320;1262;72775;-35
2023/10/18 01:24:14;;;;;;;16.20;8.40;;;;;;;1.79;73.38;99764.83;107335;1257;60376;-35
2023/10/18 01:26:42;;;;;;;12.80;7.30;;;;;;;1.77;73.49;99767.73;107270;1256;60438;-35
2023/10/18 01:29:09;;;;;;;9.30;6.70;;;;;;;1.84;73.36;99766.08;107304;1257;73033;-35
2023/10/18 01:31:43;;;;;;;12.10;7.10;;;;;;;1.93;73.19;99767.35;107287;1256;66288;-36
2023/10/18 01:34:11;;;;;;;10.40;6.90;;;;;;;1.94;73.24;99768.26;107271;1256;70238;-35
2023/10/18 01:36:39;;;;;;;11.70;7.70;;;;;;;1.91;73.54;99763.50;107255;1257;60348;-35
2023/10/18 01:39:18;;;;;;;12.80;7.60;;;;;;;1.88;73.53;99761.00;107289;1257;59586;-36
2023/10/18 01:41:47;;;;;;;;;;;;;;;1.84;73.63;99762.71;107264;1256;72635;-35
2023/10/18 01:44:18;;;;;;;12.40;7.80;;;;;;;1.79;73.82;99763.59;107402;1256;67885;-34
2023/10/18 01:46:46;;;;;;;11.80;7.30;;;;;;;1.73;73.90;99766.83;107325;1257;72684;-35
2023/10/18 01:49:19;;;;;;;11.70;7.00;;;;;;;1.77;73.96;99762.76;107290;1256;60299;-35
2023/10/18 01:51:51;;;;;;;12.00;7.30;;;;;;;1.85;73.82;99762.00;107302;1257;60396;-35
2023/10/18 01:54:20;;;;;;;11.80;7.40;;;;;;;1.88;73.82;99762.98;107163;1257;73887;-35
2023/10/18 01:56:47;;;;;;;10.00;7.30;;;;;;;1.88;73.75;99764.73;107305;1256;66633;-35
2023/10/18 01:59:17;;;;;;;14.40;7.70;;;;;;;1.88;73.90;99767.14;107146;1260;71627;-36
2023/10/18 02:01:51;;;;;;;10.70;7.20;;;;;;;1.90;74.11;99765.33;107162;1257;60206;-36
2023/10/18 02:04:41;;;;;;;14.30;8.30;;;;;;;1.90;73.94;99763.73;107535;1252;59612;-36
2023/10/18 02:07:19;;;;;;;10.10;7.10;;;;;;;1.91;73.80;99762.33;107570;1252;71621;-36
2023/10/18 02:09:52;;;;;;;14.50;7.50;;;;;;;1.98;73.67;99761.52;107543;1252;67590;-35
2023/10/18 02:12:21;;;;;;;12.20;7.60;;;;;;;2.05;73.42;99759.69;107581;1253;72767;-36
2023/10/18 02:14:49;;;;;;;11.80;7.50;;;;;;;2.05;73.58;99760.33;107526;1254;59653;-35
2023/10/18 02:17:18;;;;;;;10.00;7.40;;;;;;;2.03;73.51;99762.27;107615;1252;60428;-35
2023/10/18 02:19:47;;;;;;;12.20;7.60;;;;;;;2.02;73.47;99759.91;106756;1253;1003085;-35
2023/10/18 02:22:16;;;;;;;13.60;8.20;;;;;;;2.00;73.51;99758.10;107569;1254;66733;-35
2023/10/18 02:24:44;;;;;;;13.60;8.30;;;;;;;1.98;73.63;99756.77;107577;1254;72690;-35
2023/10/18 02:27:19;;;;;;;13.60;8.30;;;;;;;1.98;73.57;99755.54;107628;1253;60321;-35
2023/10/18 02:29:48;;;;;;;11.30;7.40;;;;;;;2.03;73.61;99754.89;107488;1253;60312;-35
2023/10/18 02:32:23;;;;;;;12.10;7.50;;;;;;;2.13;73.36;99756.81;107548;1257;73874;-35
2023/10/18 02:34:51;;;;;;;13.80;8.40;;;;;;;2.17;73.47;99757.52;107608;1254;67583;-35
2023/10/18 02:37:19;;;;;;;15.80;8.90;;;;;;;2.18;73.67;99756.08;107491;1257;72688;-35
2023/10/18 02:39:49;;;;;;;13.40;8.70;;;;;;;2.23;73.35;99756.98;107573;1257;60394;-35
2023/10/18 02:42:32;;;;;;;12.80;8.50;;;;;;;2.25;73.26;99754.85;107605;1252;60276;-35
2023/10/18 02:45:01;;;;;;;13.70;8.20;;;;;;;2.24;73.17;99753.47;107595;1253;73822;-35
2023/10/18 02:47:29;;;;;;;11.60;8.20;;;;;;;2.23;73.05;99753.39;107591;1254;67708;-35
2023/10/18 02:49:58;;;;;;;14.00;7.90;;;;;;;2.20;72.85;99755.09;107565;1254;72724;-35
2023/10/18 02:52:30;;;;;;;15.80;8.10;;;;;;;2.23;72.64;99751.85;107577;1254;60949;-35
2023/10/18 02:55:01;;;;;;;11.40;7.90;;;;;;;2.25;72.71;99747.25;107568;1254;59579;-35
2023/10/18 02:57:31;;;;;;;14.30;8.90;;;;;;;2.23;72.55;99745.05;107642;1254;72619;-35
2023/10/18 03:00:10;;;;;;;13.60;8.60;;;;;;;2.14;72.67;99741.23;107578;1254;68009;-35
2023/10/18 03:02:38;;;;;;;12.40;8.30;;;;;;;2.08;72.89;99742.37;107607;1254;72679;-35
2023/10/18 03:05:07;;;;;;;12.30;8.30;;;;;;;2.02;73.01;99739.79;107585;1256;59659;-35
2023/10/18 03:07:35;;;;;;;14.80;8.90;;;;;;;1.98;73.13;99740.08;107679;1254;60629;-35
2023/10/18 03:10:27;;;;;;;12.40;8.40;;;;;;;1.94;73.12;99742.12;107521;1252;73860;-35
2023/10/18 03:12:56;;;;;;;13.20;7.80;;;;;;;1.97;73.15;99741.75;107622;1254;66728;-35
2023/10/18 03:15:24;;;;;;;13.00;7.80;;;;;;;2.02;72.98;99740.21;106073;1254;1003383;-35
2023/10/18 03:17:52;;;;;;;14.90;8.40;;;;;;;2.01;72.94;99741.14;107661;1254;60323;-35
2023/10/18 03:20:22;;;;;;;13.60;8.60;;;;;;;1.97;72.90;99737.95;107628;1252;60776;-35
2023/10/18 03:22:51;;;;;;;11.80;7.90;;;;;;;1.95;72.92;99740.27;107571;1252;73868;-35
2023/10/18 03:25:27;;;;;;;12.60;8.40;;;;;;;1.92;72.92;99735.89;107678;1253;66626;-35
2023/10/18 03:28:00;;;;;;;13.70;8.40;;;;;;;1.86;72.95;99733.31;107601;1254;72788;-35
2023/10/18 03:30:44;;;;;;;13.10;8.90;;;;;;;1.79;72.96;99730.77;107622;1257;60398;-35
2023/10/18 03:33:13;;;;;;;15.60;8.90;;;;;;;1.73;73.25;99731.98;107714;1254;60499;-35
2023/10/18 03:35:43;;;;;;;12.30;8.10;;;;;;;1.74;73.21;99729.02;107613;1253;72658;-35
2023/10/18 03:38:17;;;;;;;12.20;8.50;;;;;;;1.78;73.00;99732.23;107628;1254;67720;-35
2023/10/18 03:40:56;;;;;;;12.80;8.00;;;;;;;1.74;73.15;99734.58;107598;1254;72704;-35
2023/10/18 03:43:32;;;;;;;14.10;8.20;;;;;;;1.70;73.25;99735.50;107570;1254;60649;-35
2023/10/18 03:48:44;;;;;;;13.40;8.80;;;;;;;1.64;73.54;99733.03;107601;1254;73838;-35
2023/10/18 03:51:23;;;;;;;12.50;8.10;;;;;;;1.61;73.46;99733.34;107569;1254;67614;-35
2023/10/18 03:53:52;;;;;;;14.80;8.60;;;;;;;1.56;73.50;99730.31;107492;1258;72695;-35
2023/10/18 03:56:25;;;;;;;11.20;8.00;;;;;;;1.57;73.37;99732.98;107518;1254;60871;-35
2023/10/18 03:59:09;;;;;;;10.60;7.80;;;;;;;1.59;73.50;99729.27;107550;1254;60363;-35
2023/10/18 04:01:44;;;;;;;12.60;8.60;;;;;;;1.57;73.75;99726.89;107591;1258;72636;-35
2023/10/18 04:04:18;;;;;;;14.10;8.30;;;;;;;1.55;73.94;99730.77;107578;1253;67630;-35
2023/10/18 04:06:58;;;;;;;14.20;8.80;;;;;;;1.55;74.03;99725.27;107646;1254;72704;-35
2023/10/18 04:09:26;;;;;;;14.80;9.00;;;;;;;1.54;74.02;99727.64;107625;1256;60284;-35
2023/10/18 04:11:54;;;;;;;12.60;8.70;;;;;;;1.52;74.12;99728.61;107588;1254;60329;-35
2023/10/18 04:14:22;;;;;;;11.40;8.10;;;;;;;1.51;74.18;99724.25;107586;1254;73833;-35
2023/10/18 04:16:56;;;;;;;11.90;7.60;;;;;;;1.56;73.94;99721.13;107624;1253;66640;-35
2023/10/18 04:19:24;;;;;;;10.40;7.40;;;;;;;1.61;73.67;99714.95;107597;1254;72716;-35
2023/10/18 04:21:53;;;;;;;12.50;7.60;;;;;;;1.61;73.87;99711.96;107599;1254;60533;-35
2023/10/18 04:24:23;;;;;;;12.60;8.20;;;;;;;1.60;74.12;99713.11;107619;1252;60460;-35
2023/10/18 04:26:52;;;;;;;11.60;8.60;;;;;;;1.57;74.38;99712.77;107566;1254;74149;-35
2023/10/18 04:29:26;;;;;;;11.10;8.00;;;;;;;1.56;74.42;99715.02;107580;1257;67563;-35
2023/10/18 04:31:56;;;;;;;13.80;8.70;;;;;;;1.56;74.44;99718.51;107594;1254;72678;-35
2023/10/18 04:34:29;;;;;;;14.10;8.70;;;;;;;1.55;74.52;99711.43;107586;1254;60373;-35
2023/10/18 04:36:59;;;;;;;12.70;7.90;;;;;;;1.59;74.38;99710.98;107612;1254;60272;-35
2023/10/18 04:39:28;;;;;;;12.40;7.80;;;;;;;1.63;74.23;99713.65;107597;1257;73772;-35
2023/10/18 04:41:56;;;;;;;11.70;7.70;;;;;;;1.62;74.23;99712.32;107514;1254;151688;-35
2023/10/18 04:45:26;;;;;;;14.80;8.20;;;;;;;1.58;74.46;99716.76;104083;1292;601040;-35
2023/10/18 04:48:06;;;;;;;13.40;8.60;;;;;;;1.54;74.48;99718.96;106523;1267;59324;-35
2023/10/18 04:50:34;;;;;;;;;;;;;;;1.50;74.73;99716.90;106513;1267;60104;-35
2023/10/18 04:53:10;;;;;;;15.50;9.00;;;;;;;1.47;74.79;99717.38;106503;1267;72308;-35
2023/10/18 04:55:41;;;;;;;16.90;8.40;;;;;;;1.45;74.95;99717.30;106528;1267;66776;-36
2023/10/18 04:58:10;;;;;;;11.30;7.80;;;;;;;1.53;75.22;99716.12;106389;1272;160581;-36
2023/10/18 05:00:56;;;;;;;13.50;8.70;;;;;;;1.64;75.10;99711.59;106657;1266;59447;-35
2023/10/18 05:03:30;;;;;;;14.90;8.50;;;;;;;1.72;75.34;99714.52;106751;1269;60044;-35
2023/10/18 05:05:58;;;;;;;13.30;8.60;;;;;;;1.77;75.62;99714.60;106744;1266;72290;-35
2023/10/18 05:08:30;;;;;;;12.40;8.60;;;;;;;1.80;75.24;99713.57;106689;1266;67569;-35
2023/10/18 05:13:43;;;;;;;13.70;8.80;;;;;;;1.81;75.39;99726.19;106727;1266;59713;-34
2023/10/18 05:16:11;;;;;;;11.70;8.90;;;;;;;1.81;75.60;99726.34;106715;1270;59144;-34
2023/10/18 05:18:39;;;;;;;14.00;8.60;;;;;;;1.89;75.17;99727.88;106737;1266;73073;-35
2023/10/18 05:21:08;;;;;;;13.40;8.10;;;;;;;1.98;75.15;99729.74;106747;1266;67664;-35
2023/10/18 05:23:36;;;;;;;12.30;8.70;;;;;;;1.99;75.13;99725.94;106726;1269;73160;-35
2023/10/18 05:28:49;;;;;;;11.20;8.50;;;;;;;1.96;75.38;99735.25;106793;1267;59529;-35
2023/10/18 05:34:22;;;;;;;15.40;9.00;;;;;;;1.92;75.40;99738.89;106739;1266;67714;-35
2023/10/18 05:41:59;;;;;;;14.20;9.00;;;;;;;2.11;75.75;99735.09;106799;1265;59618;-35
2023/10/18 05:44:29;;;;;;;15.00;9.30;;;;;;;2.13;76.01;99737.13;106762;1266;72635;-35
2023/10/18 05:46:57;;;;;;;13.30;9.80;;;;;;;2.15;75.84;99735.06;106725;1267;66584;-34
2023/10/18 05:49:25;;;;;;;14.70;9.60;;;;;;;2.16;75.96;99737.30;106714;1266;72711;-34
2023/10/18 05:54:39;;;;;;;13.20;9.20;;;;;;;2.34;75.79;99738.80;106710;1266;59945;-35
2023/10/18 05:57:07;;;;;;;10.70;8.10;;;;;;;2.42;75.67;99738.97;106691;1266;73519;-34
2023/10/18 05:59:36;;;;;;;12.80;8.30;;;;;;;2.43;75.70;99740.44;106706;1266;67623;-34
2023/10/18 06:02:37;;;;;;;14.30;9.20;;;;;;;2.47;76.08;99742.48;106657;1266;72676;-34
2023/10/18 06:04:57;;;;;;;14.10;9.40;;;;;;;2.51;76.42;99745.16;106669;1267;59419;-34
2023/10/18 06:07:26;;;;;;;14.40;9.70;;;;;;;2.53;76.34;99747.20;106697;1265;59609;-35
2023/10/18 06:09:58;;;;;;;15.30;9.40;;;;;;;2.57;76.23;99747.10;106679;1266;73074;-35
2023/10/18 06:12:30;;;;;;;13.90;9.40;;;;;;;2.67;76.37;99747.90;106709;1266;67602;-35
2023/10/18 06:15:10;;;;;;;13.60;9.50;;;;;;;2.76;76.02;99749.23;105991;1266;1003109;-35
2023/10/18 06:20:27;;;;;;;14.90;11.00;;;;;;;2.81;76.52;99746.55;106744;1267;60621;-34
2023/10/18 06:23:36;;;;;;;15.00;11.10;;;;;;;2.83;76.93;99745.77;106736;1266;72128;-35
2023/10/18 06:28:53;;;;;;;19.70;9.90;;;;;;;3.04;77.16;99748.49;106712;1264;72760;-36
2023/10/18 06:31:22;;;;;;;14.90;10.70;;;;;;;3.14;77.33;99749.20;106754;1266;60058;-36
2023/10/18 06:33:54;;;;;;;16.60;10.60;;;;;;;3.19;77.57;99747.70;106874;1267;60025;-36
2023/10/18 06:36:24;;;;;;;16.10;10.50;;;;;;;3.22;77.68;99747.53;106766;1264;71894;-35
2023/10/18 06:38:52;;;;;;;20.50;11.20;;;;;;;3.27;77.92;99745.66;106850;1263;66751;-36
2023/10/18 06:41:21;;;;;;;14.70;9.90;;;;;;;3.33;78.22;99742.56;106809;1267;72683;-36
2023/10/18 06:43:49;;;;;;;15.00;9.90;;;;;;;3.46;78.18;99740.23;106747;1266;61080;-36
2023/10/18 06:46:25;;;;;;;16.90;10.40;;;;;;;3.62;78.18;99739.55;106778;1264;60050;-36
2023/10/18 06:48:55;;;;;;;16.70;10.30;;;;;;;3.71;77.94;99735.58;106803;1265;73127;-36
2023/10/18 06:51:43;;;;;;;13.80;10.30;;;;;;;3.77;78.16;99732.70;106840;1264;67591;-36
2023/10/18 06:54:13;;;;;;;17.40;10.70;;;;;;;3.85;78.29;99727.28;106814;1264;72734;-36
2023/10/18 06:56:53;;;;;;;17.70;9.70;;;;;;;3.94;78.38;99725.14;106746;1267;61345;-35
2023/10/18 06:59:28;;;;;;;13.90;9.30;;;;;;;4.12;78.28;99723.83;106758;1267;60097;-36
2023/10/18 07:01:59;;;;;;;14.50;9.40;;;;;;;4.32;78.38;99714.11;106717;1267;73096;-36
2023/10/18 07:04:37;;;;;;;16.60;9.00;;;;;;;4.47;77.94;99710.95;106739;1264;66347;-36
2023/10/18 07:07:11;;;;;;;14.90;10.30;;;;;;;4.59;77.51;99714.02;106731;1266;72674;-36
2023/10/18 07:09:42;;;;;;;14.80;9.00;;;;;;;4.71;77.49;99704.61;106758;1264;59557;-36
2023/10/18 07:12:11;;;;;;;10.80;7.90;;;;;;;4.85;77.06;99699.02;106727;1264;60032;-36
2023/10/18 07:14:38;;;;;;;12.90;8.60;;;;;;;5.05;76.53;99693.27;106745;1264;71990;-36
2023/10/18 07:17:09;;;;;;;13.70;8.00;;;;;;;5.27;76.43;99696.77;106810;1269;67925;-35
2023/10/18 07:19:49;;;;;;;15.10;9.10;;;;;;;5.44;75.65;99693.82;105967;1264;1002871;-35
2023/10/18 07:22:21;;;;;;;16.90;8.10;;;;;;;5.59;74.68;99695.81;106759;1267;59603;-35
2023/10/18 07:24:55;;;;;;;11.00;7.70;;;;;;;5.72;74.21;99686.05;106776;1264;60399;-35
2023/10/18 07:27:29;;;;;;;14.40;7.00;;;;;;;5.86;73.53;99686.98;106748;1264;71894;-35
2023/10/18 07:30:00;;;;;;;9.00;6.30;;;;;;;6.05;73.15;99686.58;106771;1264;67601;-35
2023/10/18 07:32:28;;;;;;;12.40;6.40;;;;;;;6.24;72.64;99686.27;106743;1264;72706;-35
2023/10/18 07:34:57;;;;;;;13.20;7.20;;;;;;;6.36;71.06;99685.84;106885;1263;59970;-35
2023/10/18 07:37:24;;;;;;;10.00;6.30;;;;;;;6.45;70.35;99682.70;106910;1260;59468;-35
2023/10/18 07:40:07;;;;;;;10.90;6.80;;;;;;;6.55;70.19;99678.46;106904;1261;73184;-35
2023/10/18 07:42:35;;;;;;;10.00;6.10;;;;;;;6.67;69.38;99674.16;106900;1261;67602;-35
2023/10/18 07:45:04;;;;;;;12.60;6.00;;;;;;;6.85;69.16;99670.91;106868;1266;72713;-35
2023/10/18 07:47:32;;;;;;;10.30;6.20;;;;;;;7.00;69.02;99669.52;106883;1260;60103;-35
2023/10/18 07:50:00;;;;;;;10.40;5.20;;;;;;;7.13;68.93;99672.53;107204;1257;60043;-35
2023/10/18 07:52:28;;;;;;;8.20;5.10;;;;;;;7.25;68.07;99669.27;107268;1257;73047;-35
2023/10/18 07:54:55;;;;;;;11.30;5.50;;;;;;;7.35;66.90;99669.59;107204;1257;67894;-35
2023/10/18 07:57:33;;;;;;;11.90;6.00;;;;;;;7.45;65.77;99669.26;105717;1257;1002977;-35
2023/10/18 08:00:21;;;;;;;11.60;6.40;;;;;;;7.53;65.61;99665.04;107249;1257;59622;-35
2023/10/18 08:02:49;;;;;;;10.70;5.60;;;;;;;7.62;65.54;99666.29;107248;1257;60013;-35
2023/10/18 08:05:19;;;;;;;7.40;5.10;;;;;;;7.75;64.59;99661.58;107295;1257;72144;-35
2023/10/18 08:07:52;;;;;;;9.50;4.80;;;;;;;7.87;63.79;99659.70;107194;1257;67898;-35
2023/10/18 08:10:19;;;;;;;10.80;5.30;;;;;;;7.94;64.39;99658.94;107189;1257;72708;-35
2023/10/18 08:15:35;;;;;;;11.40;5.00;;;;;;;8.08;63.22;99652.14;107195;1257;59631;-35
2023/10/18 08:18:16;;;;;;;8.70;5.00;;;;;;;8.12;62.38;99648.88;107214;1257;71541;-35
2023/10/18 08:26:03;;;;;;;9.30;5.00;;;;;;;8.29;61.77;99630.27;107215;1257;59612;-35
2023/10/18 08:28:38;;;;;;;8.80;5.30;;;;;;;8.42;61.76;99629.04;107252;1258;60391;-36
2023/10/18 08:31:17;;;;;;;12.90;5.70;;;;;;;8.54;60.44;99628.89;107208;1257;71973;-35
2023/10/18 08:33:45;;;;;;;12.50;5.70;;;;;;;8.63;59.37;99629.41;107246;1256;67587;-36
2023/10/18 08:36:13;;;;;;;9.60;5.20;;;;;;;8.70;59.99;99623.75;107203;1257;72834;-35
2023/10/18 08:38:41;;;;;;;8.10;4.70;;;;;;;8.80;59.71;99626.66;107216;1258;59120;-35
2023/10/18 08:41:13;;;;;;;10.50;5.00;;;;;;;8.87;59.20;99625.20;107243;1257;60407;-35
2023/10/18 08:43:57;;;;;;;7.90;4.20;;;;;;;8.95;57.33;99621.41;107208;1257;73054;-36
2023/10/18 08:46:26;;;;;;;6.90;4.50;;;;;;;9.00;57.54;99620.33;107173;1257;68169;-35
2023/10/18 08:48:55;;;;;;;8.10;3.90;;;;;;;9.08;57.36;99621.72;107178;1257;71896;-36
2023/10/18 08:51:26;;;;;;;8.00;4.30;;;;;;;9.19;56.52;99618.07;107261;1257;59593;-35
2023/10/18 08:53:55;;;;;;;5.50;3.30;;;;;;;9.29;55.92;99615.73;107258;1257;60133;-35
2023/10/18 08:56:29;;;;;;;4.40;2.80;;;;;;;9.40;55.50;99616.11;107246;1257;73151;-35
2023/10/18 08:58:57;;;;;;;6.40;2.90;;;;;;;9.50;54.18;99616.09;107296;1257;65788;-36
2023/10/18 09:01:25;;;;;;;6.10;3.30;;;;;;;9.61;53.22;99618.38;107093;1257;72677;-35
2023/10/18 09:03:55;;;;;;;5.50;3.50;;;;;;;9.68;52.69;99613.32;107210;1257;60511;-35
2023/10/18 09:06:30;;;;;;;6.00;3.10;;;;;;;9.75;53.01;99606.91;107251;1257;60339;-36
2023/10/18 09:09:05;;;;;;;4.40;2.70;;;;;;;9.79;52.04;99602.69;107264;1257;72908;-35
2023/10/18 09:11:33;;;;;;;6.10;3.10;;;;;;;9.83;51.14;99598.84;107212;1257;66707;-35
2023/10/18 09:14:07;;;;;;;5.20;3.00;;;;;;;9.89;51.09;99596.08;107022;1260;72683;-36
2023/10/18 09:16:37;;;;;;;7.70;2.90;;;;;;;9.99;50.84;99589.98;107148;1262;60549;-35
2023/10/18 09:19:09;;;;;;;5.40;3.00;;;;;;;10.07;50.42;99590.92;107283;1257;60270;-35
2023/10/18 09:21:56;;;;;;;4.80;2.80;;;;;;;10.11;50.41;99590.87;107281;1257;74022;-36
2023/10/18 09:24:30;;;;;;;5.10;2.60;;;;;;;10.16;50.58;99582.67;107235;1257;67573;-36
2023/10/18 09:27:00;;;;;;;4.60;2.70;;;;;;;10.21;49.14;99578.92;107231;1257;70475;-36
2023/10/18 09:29:29;;;;;;;3.80;2.60;;;;;;;10.19;48.20;99574.31;107112;1256;60460;-36
2023/10/18 09:32:04;;;;;;;4.90;2.90;;;;;;;10.10;48.36;99569.02;107214;1257;60096;-35
2023/10/18 09:34:33;;;;;;;7.30;2.90;;;;;;;9.99;48.72;99575.67;107084;1257;72898;-36
2023/10/18 09:37:10;;;;;;;8.30;3.00;;;;;;;9.89;48.83;99566.89;107224;1257;66874;-36
2023/10/18 09:39:39;;;;;;;6.80;3.00;;;;;;;9.81;49.44;99566.53;107236;1257;72672;-34
2023/10/18 09:42:12;;;;;;;7.00;2.40;;;;;;;9.75;49.35;99560.05;107194;1257;60405;-34
2023/10/18 09:44:44;;;;;;;5.10;2.70;;;;;;;9.70;48.76;99560.54;107285;1257;59231;-35
2023/10/18 09:47:12;;;;;;;5.20;2.70;;;;;;;9.64;48.12;99557.68;107218;1257;73859;-35
2023/10/18 09:49:42;;;;;;;4.70;3.20;;;;;;;9.59;48.71;99557.48;107265;1257;67714;-35
2023/10/18 09:52:13;;;;;;;4.00;2.60;;;;;;;9.55;49.25;99550.64;107169;1257;72739;-35
2023/10/18 09:54:51;;;;;;;6.00;3.20;;;;;;;9.54;49.48;99548.13;107210;1257;60515;-35
2023/10/18 09:57:26;;;;;;;5.60;2.90;;;;;;;9.55;48.85;99545.39;107306;1257;60803;-35
2023/10/18 09:59:54;;;;;;;5.30;3.00;;;;;;;9.57;48.33;99540.49;107200;1257;74244;-35
2023/10/18 10:02:23;;;;;;;5.00;2.50;;;;;;;9.59;47.65;99535.73;107297;1257;66770;-35
2023/10/18 10:04:54;;;;;;;4.40;2.90;;;;;;;9.60;46.76;99535.30;107222;1257;72672;-35
2023/10/18 10:07:27;;;;;;;4.60;3.10;;;;;;;9.60;46.68;99529.64;107156;1257;60501;-35
2023/10/18 10:10:07;;;;;;;4.40;2.60;;;;;;;9.60;47.32;99525.40;107256;1257;60303;-35
2023/10/18 10:12:41;;;;;;;3.80;2.80;;;;;;;9.60;47.03;99518.27;107196;1256;73838;-35
2023/10/18 10:15:13;;;;;;;3.10;2.40;;;;;;;9.60;47.04;99515.20;107240;1257;68188;-35
2023/10/18 10:17:42;;;;;;;3.50;2.20;;;;;;;9.62;47.42;99512.07;107221;1257;72768;-35
2023/10/18 10:20:10;;;;;;;7.30;3.00;;;;;;;9.63;47.35;99514.98;107276;1257;60348;-35
2023/10/18 10:22:38;;;;;;;4.60;2.90;;;;;;;9.64;47.44;99510.17;107069;1256;60326;-35
2023/10/18 10:25:11;;;;;;;5.90;3.30;;;;;;;9.61;46.94;99498.06;107039;1257;72899;-35
2023/10/18 10:28:14;;;;;;;5.10;2.70;;;;;;;9.60;47.94;99498.17;107251;1257;66461;-35
2023/10/18 10:30:45;;;;;;;4.90;2.90;;;;;;;9.60;48.17;99492.63;107227;1261;71960;-35
2023/10/18 10:33:12;;;;;;;9.40;3.30;;;;;;;9.63;48.77;99495.77;107254;1257;60395;-35
2023/10/18 10:35:47;;;;;;;8.90;3.70;;;;;;;9.66;48.23;99488.83;107212;1257;59687;-35
2023/10/18 10:38:21;;;;;;;6.80;3.60;;;;;;;9.69;47.99;99488.10;107244;1256;72634;-35
2023/10/18 10:41:13;;;;;;;5.60;3.30;;;;;;;9.70;48.70;99485.20;107227;1257;67963;-35
2023/10/18 10:44:07;;;;;;;11.40;3.80;;;;;;;9.72;48.76;99479.06;107088;1258;72796;-35
2023/10/18 10:46:37;;;;;;;5.50;3.50;;;;;;;9.71;48.91;99477.80;107240;1256;60612;-35
2023/10/18 10:50:00;;;;;;;7.80;3.80;;;;;;;9.70;49.39;99475.30;107239;1257;60444;-35
2023/10/18 10:52:31;;;;;;;7.30;4.20;;;;;;;9.71;50.54;99479.27;106965;1257;73878;-35
2023/10/18 10:55:04;;;;;;;5.00;3.60;;;;;;;9.70;50.49;99477.77;107206;1262;67582;-35
2023/10/18 10:57:43;;;;;;;6.50;3.50;;;;;;;9.67;50.61;99479.17;107235;1259;72689;-35
2023/10/18 11:03:08;;;;;;;;;;;;;;;9.66;50.58;99475.81;107282;1257;60450;-35
2023/10/18 11:05:39;;;;;;;11.80;4.00;;;;;;;9.63;51.02;99474.27;107235;1257;73884;-35
2023/10/18 11:08:07;;;;;;;7.30;3.20;;;;;;;9.61;51.99;99474.31;107263;1257;67588;-35
2023/10/18 11:10:39;;;;;;;7.80;3.50;;;;;;;9.62;52.44;99475.89;107225;1257;72831;-35
2023/10/18 11:13:08;;;;;;;6.00;3.60;;;;;;;9.62;52.29;99468.54;107256;1257;60444;-36
2023/10/18 11:15:36;;;;;;;7.60;3.60;;;;;;;9.60;52.02;99469.94;107221;1257;60559;-36
2023/10/18 11:18:20;;;;;;;10.00;4.20;;;;;;;9.56;52.01;99464.29;107253;1257;73907;-35
2023/10/18 11:20:58;;;;;;;11.20;4.20;;;;;;;9.52;51.80;99464.50;107110;1257;67731;-36
2023/10/18 11:23:27;;;;;;;12.30;3.90;;;;;;;9.49;51.98;99459.30;107191;1257;71726;-36
2023/10/18 11:25:59;;;;;;;5.90;4.20;;;;;;;9.46;52.39;99456.46;107260;1257;61006;-36
2023/10/18 11:28:29;;;;;;;8.60;3.20;;;;;;;9.45;52.24;99455.52;107072;1259;59607;-36
2023/10/18 11:30:57;;;;;;;7.00;3.40;;;;;;;9.44;52.09;99452.55;107216;1256;73886;-36
2023/10/18 11:33:46;;;;;;;8.90;3.30;;;;;;;9.43;52.27;99445.04;107287;1257;67486;-35
2023/10/18 11:36:20;;;;;;;8.60;3.60;;;;;;;9.44;52.64;99442.35;107242;1257;73567;-36
2023/10/18 11:39:07;;;;;;;8.70;3.60;;;;;;;9.45;52.59;99440.43;107259;1257;60398;-36
2023/10/18 11:41:35;;;;;;;5.70;3.20;;;;;;;9.45;52.70;99433.24;107247;1257;60312;-35
2023/10/18 11:44:13;;;;;;;7.70;3.40;;;;;;;9.49;52.30;99429.14;107231;1257;72789;-36
2023/10/18 11:46:50;;;;;;;5.60;3.70;;;;;;;9.49;52.21;99426.31;107255;1257;66280;-36
2023/10/18 11:49:19;;;;;;;7.40;3.40;;;;;;;9.51;52.13;99423.58;107228;1262;71550;-36
2023/10/18 11:51:48;;;;;;;5.90;3.40;;;;;;;9.54;52.12;99422.02;107282;1261;60492;-36
2023/10/18 11:54:35;;;;;;;10.20;3.50;;;;;;;9.58;52.34;99417.30;107232;1257;60428;-36
2023/10/18 11:57:06;;;;;;;8.70;3.40;;;;;;;9.63;52.29;99410.25;107230;1257;73934;-35
2023/10/18 11:59:51;;;;;;;7.30;3.50;;;;;;;9.72;52.24;99411.85;107290;1257;67586;-36
2023/10/18 12:02:18;;;;;;;6.50;3.50;;;;;;;9.91;51.48;99405.23;107267;1260;71793;-36
2023/10/18 12:04:47;;;;;;;9.80;3.80;;;;;;;10.15;50.93;99398.88;107253;1258;60395;-36
2023/10/18 12:07:16;;;;;;;7.40;3.50;;;;;;;10.43;50.37;99390.55;107214;1261;60339;-36
2023/10/18 12:09:45;;;;;;;6.30;3.10;;;;;;;10.73;49.29;99390.77;107295;1257;73921;-36
2023/10/18 12:12:13;;;;;;;6.80;3.40;;;;;;;10.95;48.80;99390.69;107287;1257;67598;-36
2023/10/18 12:14:42;;;;;;;6.30;3.20;;;;;;;11.05;48.45;99386.59;107281;1257;72831;-36
2023/10/18 12:17:10;;;;;;;6.90;3.40;;;;;;;11.08;48.49;99387.66;107297;1260;60518;-36
2023/10/18 12:19:38;;;;;;;9.80;4.00;;;;;;;11.12;48.69;99384.78;107246;1257;60437;-36
2023/10/18 12:22:07;;;;;;;4.70;2.90;;;;;;;11.24;48.56;99380.86;107132;1257;74268;-36
2023/10/18 12:24:35;;;;;;;7.20;3.20;;;;;;;11.40;48.02;99379.42;107117;1257;68344;-36
2023/10/18 12:27:19;;;;;;;5.70;3.10;;;;;;;11.44;47.26;99376.77;107123;1257;71014;-36
2023/10/18 12:29:47;;;;;;;6.20;3.20;;;;;;;11.34;47.15;99373.59;107138;1257;62174;-36
2023/10/18 12:32:27;;;;;;;7.40;3.80;;;;;;;11.20;47.56;99369.40;107152;1257;60322;-36